Aviation Digital Data Service (ADDS)

Output produced by METARs form (1132 UTC 23 January 2018)
found at http://aviationweather.gov/adds/metars/
 
KYNG 230914Z 2309/2406 20007KT P6SM VCSH SCT020 OVC060 
     FM231500 24014G22KT 5SM -SHRA OVC025 
     FM232200 24018G26KT 3SM -SHRASN OVC012